createdAt,value
2023-02-17T00:01:00.182Z,17.30
2023-02-17T00:03:27.168Z,17.30
2023-02-17T00:05:54.440Z,17.40
2023-02-17T00:08:21.354Z,17.40
2023-02-17T00:10:57.099Z,17.30
2023-02-17T00:13:24.399Z,17.30
2023-02-17T00:15:51.496Z,17.30
2023-02-17T00:18:18.530Z,17.30
2023-02-17T00:20:45.526Z,17.30
2023-02-17T00:23:12.489Z,17.30
2023-02-17T00:25:39.829Z,17.30
2023-02-17T00:28:06.811Z,17.30
2023-02-17T00:30:33.814Z,17.30
2023-02-17T00:33:01.207Z,17.20
2023-02-17T00:35:28.221Z,17.20
2023-02-17T00:37:55.136Z,17.30
2023-02-17T00:40:22.147Z,17.30
2023-02-17T00:42:49.158Z,17.30
2023-02-17T00:45:16.456Z,17.20
2023-02-17T00:47:43.340Z,17.20
2023-02-17T00:50:10.433Z,17.20
2023-02-17T00:52:37.497Z,17.20
2023-02-17T00:55:04.986Z,17.20
2023-02-17T00:57:32.502Z,17.20
2023-02-17T00:59:59.735Z,17.20
2023-02-17T01:02:26.813Z,17.20
2023-02-17T01:04:54.337Z,17.20
2023-02-17T01:07:21.411Z,17.20
2023-02-17T01:09:48.384Z,17.20
2023-02-17T01:12:16.078Z,17.20
2023-02-17T01:14:43.046Z,17.20
2023-02-17T01:17:10.085Z,17.10
2023-02-17T01:19:37.108Z,17.20
2023-02-17T01:22:04.104Z,17.30
2023-02-17T01:24:31.073Z,17.30
2023-02-17T01:26:58.186Z,17.30
2023-02-17T01:29:27.755Z,17.30
2023-02-17T01:31:54.728Z,17.30
2023-02-17T01:34:21.697Z,17.30
2023-02-17T01:36:48.638Z,17.30
2023-02-17T01:39:16.625Z,17.40
2023-02-17T01:41:46.673Z,17.30
2023-02-17T01:44:20.626Z,17.30
2023-02-17T01:46:50.141Z,17.40
2023-02-17T01:49:37.919Z,17.40
2023-02-17T01:52:14.096Z,17.40
2023-02-17T01:54:47.828Z,17.30
2023-02-17T01:57:19.525Z,17.40
2023-02-17T01:59:47.392Z,17.40
2023-02-17T02:02:15.495Z,17.40
2023-02-17T02:04:46.852Z,17.30
2023-02-17T02:07:18.556Z,17.30
2023-02-17T02:09:53.787Z,17.40
2023-02-17T02:12:27.204Z,17.40
2023-02-17T02:14:58.548Z,17.40
2023-02-17T02:17:31.021Z,17.30
2023-02-17T02:20:10.814Z,17.20
2023-02-17T02:22:59.497Z,17.20
2023-02-17T02:25:54.561Z,17.10
2023-02-17T02:28:56.701Z,17.20
2023-02-17T02:31:26.665Z,17.20
2023-02-17T02:34:42.972Z,17.20
2023-02-17T02:37:24.955Z,17.20
2023-02-17T02:39:54.842Z,17.10
2023-02-17T02:42:24.617Z,17.10
2023-02-17T02:44:51.705Z,17.10
2023-02-17T02:47:47.534Z,17.10
2023-02-17T02:50:44.029Z,17.20
2023-02-17T02:53:38.353Z,17.10
2023-02-17T02:56:20.002Z,17.20
2023-02-17T02:59:05.733Z,17.10
2023-02-17T03:01:52.230Z,17.10
2023-02-17T03:04:36.236Z,17.00
2023-02-17T03:07:07.779Z,17.10
2023-02-17T03:09:35.242Z,17.00
2023-02-17T03:12:02.674Z,17.10
2023-02-17T03:14:36.446Z,17.10
2023-02-17T03:17:04.063Z,17.20
2023-02-17T03:19:31.090Z,17.10
2023-02-17T03:22:07.391Z,17.10
2023-02-17T03:24:36.148Z,17.20
2023-02-17T03:27:05.972Z,17.20
2023-02-17T03:29:33.684Z,17.10
2023-02-17T03:32:01.200Z,17.10
2023-02-17T03:34:28.261Z,17.10
2023-02-17T03:36:55.222Z,17.00
2023-02-17T03:39:22.228Z,17.00
2023-02-17T03:41:51.668Z,17.10
2023-02-17T03:44:19.348Z,17.10
2023-02-17T03:46:47.230Z,17.20
2023-02-17T03:49:14.726Z,17.20
2023-02-17T03:51:41.719Z,17.00
2023-02-17T03:54:09.597Z,17.00
2023-02-17T03:56:36.954Z,17.10
2023-02-17T03:59:04.360Z,17.00
2023-02-17T04:01:31.454Z,16.90
2023-02-17T04:03:58.488Z,16.90
2023-02-17T04:06:25.504Z,17.00
2023-02-17T04:08:52.517Z,16.90
2023-02-17T04:11:19.433Z,16.90
2023-02-17T04:13:46.375Z,16.90
2023-02-17T04:16:13.428Z,16.80
2023-02-17T04:18:40.483Z,16.80
2023-02-17T04:21:07.922Z,16.90
2023-02-17T04:23:38.553Z,16.90
2023-02-17T04:26:06.917Z,17.00
2023-02-17T04:28:35.260Z,16.90
2023-02-17T04:31:02.327Z,17.00
2023-02-17T04:33:29.728Z,16.90
2023-02-17T04:35:59.728Z,16.90
2023-02-17T04:38:28.751Z,16.90
2023-02-17T04:40:56.909Z,16.90
2023-02-17T04:43:25.261Z,16.90
2023-02-17T04:45:53.274Z,17.00
2023-02-17T04:48:21.124Z,16.90
2023-02-17T04:50:48.291Z,16.80
2023-02-17T04:53:15.368Z,16.90
2023-02-17T04:55:42.792Z,17.00
2023-02-17T04:58:09.858Z,16.90
2023-02-17T05:00:37.356Z,16.90
2023-02-17T05:03:04.635Z,17.00
2023-02-17T05:05:31.679Z,16.90
2023-02-17T05:07:58.678Z,16.80
2023-02-17T05:10:25.602Z,16.80
2023-02-17T05:12:52.653Z,16.90
2023-02-17T05:15:19.684Z,16.90
2023-02-17T05:17:47.024Z,17.00
2023-02-17T05:20:14.089Z,17.00
2023-02-17T05:22:41.138Z,17.00
2023-02-17T05:25:08.338Z,16.90
2023-02-17T05:27:35.549Z,17.00
2023-02-17T05:30:02.828Z,17.00
2023-02-17T05:32:29.985Z,17.00
2023-02-17T05:34:56.903Z,17.00
2023-02-17T05:37:23.786Z,17.10
2023-02-17T05:39:50.792Z,17.10
2023-02-17T05:42:17.795Z,17.10
2023-02-17T05:44:45.802Z,16.90
2023-02-17T05:47:12.753Z,17.00
2023-02-17T05:49:39.749Z,17.10
2023-02-17T05:52:06.740Z,17.10
2023-02-17T05:54:33.774Z,16.90
2023-02-17T05:57:00.688Z,16.90
2023-02-17T05:59:27.718Z,16.90
2023-02-17T06:01:54.695Z,16.90
2023-02-17T06:04:21.810Z,16.90
2023-02-17T06:06:48.756Z,16.90
2023-02-17T06:09:15.718Z,16.90
2023-02-17T06:11:42.618Z,16.90
2023-02-17T06:14:09.603Z,16.90
2023-02-17T06:16:36.641Z,16.80
2023-02-17T06:19:05.321Z,16.80
2023-02-17T06:21:32.723Z,16.80
2023-02-17T06:23:59.806Z,16.90
2023-02-17T06:26:26.769Z,17.00
2023-02-17T06:28:53.846Z,17.00
2023-02-17T06:31:20.939Z,16.80
2023-02-17T06:33:48.276Z,16.70
2023-02-17T06:36:15.313Z,16.50
2023-02-17T06:38:42.290Z,16.50
2023-02-17T06:41:09.356Z,16.50
2023-02-17T06:43:36.362Z,16.60
2023-02-17T06:46:03.498Z,16.60
2023-02-17T06:48:33.138Z,16.50
2023-02-17T06:51:01.218Z,16.40
2023-02-17T06:53:28.440Z,16.40
2023-02-17T06:55:56.066Z,16.60
2023-02-17T06:58:23.314Z,16.70
2023-02-17T07:00:51.603Z,16.60
2023-02-17T07:03:18.589Z,16.70
2023-02-17T07:05:45.585Z,16.90
2023-02-17T07:08:12.677Z,16.80
2023-02-17T07:10:39.634Z,16.80
2023-02-17T07:13:06.599Z,16.80
2023-02-17T07:15:35.281Z,16.80
2023-02-17T07:18:03.119Z,16.70
2023-02-17T07:20:32.041Z,16.80
2023-02-17T07:23:01.983Z,16.70
2023-02-17T07:25:29.116Z,16.60
2023-02-17T07:27:56.083Z,16.60
2023-02-17T07:30:23.108Z,16.60
2023-02-17T07:32:50.040Z,16.50
2023-02-17T07:35:17.128Z,16.60
2023-02-17T07:37:44.032Z,16.70
2023-02-17T07:40:11.469Z,16.80
2023-02-17T07:42:38.405Z,16.90
2023-02-17T07:45:06.016Z,16.90
2023-02-17T07:47:33.509Z,16.80
2023-02-17T07:50:00.516Z,16.90
2023-02-17T07:52:27.468Z,17.10
2023-02-17T07:54:54.466Z,17.00
2023-02-17T07:57:21.625Z,17.10
2023-02-17T07:59:48.552Z,17.10
2023-02-17T08:02:15.562Z,17.00
2023-02-17T08:04:42.711Z,17.00
2023-02-17T08:07:09.608Z,17.10
2023-02-17T08:09:55.182Z,17.10
2023-02-17T08:12:41.032Z,17.10
2023-02-17T08:15:10.226Z,17.10
2023-02-17T08:17:37.281Z,17.10
2023-02-17T08:20:08.697Z,17.20
2023-02-17T08:22:37.230Z,17.20
2023-02-17T08:25:06.705Z,17.20
2023-02-17T08:27:34.014Z,17.20
2023-02-17T08:30:01.248Z,17.20
2023-02-17T08:32:28.412Z,17.30
2023-02-17T08:34:56.935Z,17.30
2023-02-17T08:37:24.360Z,17.40
2023-02-17T08:39:51.469Z,17.30
2023-02-17T08:42:18.880Z,17.40
2023-02-17T08:44:46.321Z,17.40
2023-02-17T08:47:13.361Z,17.40
2023-02-17T08:49:41.154Z,17.40
2023-02-17T08:52:08.240Z,17.20
2023-02-17T08:54:35.281Z,17.20
2023-02-17T08:57:02.317Z,17.10
2023-02-17T08:59:29.407Z,17.20
2023-02-17T09:01:56.885Z,17.20
2023-02-17T09:04:24.104Z,17.30
2023-02-17T09:06:56.051Z,17.40
2023-02-17T09:09:29.207Z,17.30
2023-02-17T09:11:59.252Z,17.40
2023-02-17T09:14:27.058Z,17.50
2023-02-17T09:16:55.055Z,17.50
2023-02-17T09:19:22.395Z,17.40
2023-02-17T09:21:49.595Z,17.50
2023-02-17T09:24:18.143Z,17.40
2023-02-17T09:26:45.510Z,17.50
2023-02-17T09:29:12.580Z,17.50
2023-02-17T09:31:39.763Z,17.50
2023-02-17T09:34:06.870Z,17.50
2023-02-17T09:36:39.586Z,17.50
2023-02-17T09:39:06.955Z,17.60
2023-02-17T09:41:47.245Z,17.50
2023-02-17T09:44:22.631Z,17.50
2023-02-17T09:47:05.563Z,17.50
2023-02-17T09:49:42.143Z,17.60
2023-02-17T09:52:16.722Z,17.70
2023-02-17T09:55:04.125Z,17.60
2023-02-17T09:57:37.725Z,17.60
2023-02-17T10:00:09.751Z,17.60
2023-02-17T10:03:06.444Z,17.60
2023-02-17T10:05:42.069Z,17.60
2023-02-17T10:08:18.259Z,17.60
2023-02-17T10:10:58.898Z,17.50
2023-02-17T10:13:30.015Z,17.60
2023-02-17T10:16:03.312Z,17.60
2023-02-17T10:18:36.534Z,17.60
2023-02-17T10:21:15.636Z,17.60
2023-02-17T10:23:42.615Z,17.50
2023-02-17T10:26:34.257Z,17.50
2023-02-17T10:29:14.669Z,17.40
2023-02-17T10:31:50.734Z,17.40
2023-02-17T10:34:36.328Z,17.30
2023-02-17T10:37:15.206Z,17.50
2023-02-17T10:39:57.283Z,17.40
2023-02-17T10:42:36.023Z,17.50
2023-02-17T10:45:10.705Z,17.50
2023-02-17T10:47:40.003Z,17.60
2023-02-17T10:50:21.675Z,17.50
2023-02-17T10:52:49.791Z,17.60
2023-02-17T10:55:39.569Z,17.50
2023-02-17T10:58:17.467Z,17.50
2023-02-17T11:00:47.760Z,17.50
2023-02-17T11:03:26.705Z,17.50
2023-02-17T11:05:56.502Z,17.50
2023-02-17T11:08:39.950Z,17.60
2023-02-17T11:11:17.714Z,17.60
2023-02-17T11:13:58.825Z,17.60
2023-02-17T11:16:29.669Z,17.60
2023-02-17T11:18:57.033Z,17.60
2023-02-17T11:21:24.114Z,17.60
2023-02-17T11:24:04.920Z,17.60
2023-02-17T11:26:35.182Z,17.60
2023-02-17T11:29:21.012Z,17.60
2023-02-17T11:32:14.585Z,17.50
2023-02-17T11:34:43.980Z,17.60
2023-02-17T11:37:13.848Z,17.60
2023-02-17T11:39:55.683Z,17.60
2023-02-17T11:42:31.825Z,17.50
2023-02-17T11:45:01.198Z,17.60
2023-02-17T11:48:16.064Z,17.50
2023-02-17T11:51:08.194Z,17.60
2023-02-17T11:54:06.069Z,17.60
2023-02-17T11:56:44.090Z,17.50
2023-02-17T11:59:25.950Z,17.50
2023-02-17T12:02:05.681Z,17.50
2023-02-17T12:04:46.532Z,17.50
2023-02-17T12:07:37.111Z,17.60
2023-02-17T12:10:39.355Z,17.60
2023-02-17T12:13:34.020Z,17.70
2023-02-17T12:16:18.719Z,17.70
2023-02-17T12:18:53.108Z,17.60
2023-02-17T12:21:34.407Z,17.60
2023-02-17T12:24:13.435Z,17.60
2023-02-17T12:27:06.287Z,17.50
2023-02-17T12:30:00.651Z,17.50
2023-02-17T12:32:36.887Z,17.50
2023-02-17T12:35:26.445Z,17.50
2023-02-17T12:38:03.830Z,17.60
2023-02-17T12:41:00.102Z,17.60
2023-02-17T12:43:46.283Z,17.60
2023-02-17T12:46:38.531Z,17.70
2023-02-17T12:49:23.737Z,17.60
2023-02-17T12:52:03.931Z,17.60
2023-02-17T12:54:44.268Z,17.50
2023-02-17T12:57:14.089Z,17.50
2023-02-17T12:59:50.361Z,17.50
2023-02-17T13:02:25.719Z,17.50
2023-02-17T13:04:57.922Z,17.40
2023-02-17T13:07:50.605Z,17.40
2023-02-17T13:10:29.847Z,17.50
2023-02-17T13:13:06.352Z,17.50
2023-02-17T13:15:43.064Z,17.50
2023-02-17T13:18:15.083Z,17.50
2023-02-17T13:20:52.223Z,17.50
2023-02-17T13:23:30.604Z,17.50
2023-02-17T13:26:24.364Z,17.50
2023-02-17T13:28:53.706Z,17.40
2023-02-17T13:31:24.130Z,17.40
2023-02-17T13:33:56.715Z,17.40
2023-02-17T13:36:29.514Z,17.50
2023-02-17T13:39:03.133Z,17.50
2023-02-17T13:41:47.731Z,17.40
2023-02-17T13:44:26.271Z,17.40
2023-02-17T13:46:56.895Z,17.40
2023-02-17T13:49:27.761Z,17.40
2023-02-17T13:51:55.441Z,17.50
2023-02-17T13:54:23.309Z,17.50
2023-02-17T13:56:51.986Z,17.50
2023-02-17T13:59:27.090Z,17.40
2023-02-17T14:01:57.387Z,17.30
2023-02-17T14:04:30.624Z,17.30
2023-02-17T14:07:00.150Z,17.30
2023-02-17T14:09:30.766Z,17.30
2023-02-17T14:12:01.130Z,17.40
2023-02-17T14:14:37.690Z,17.40
2023-02-17T14:17:32.441Z,17.50
2023-02-17T14:20:00.877Z,17.50
2023-02-17T14:22:32.858Z,17.50
2023-02-17T14:25:14.270Z,17.50
2023-02-17T14:27:46.992Z,17.50
2023-02-17T14:30:35.573Z,17.50
2023-02-17T14:33:22.492Z,17.50
2023-02-17T14:35:55.626Z,17.50
2023-02-17T14:38:25.422Z,17.60
2023-02-17T14:41:01.808Z,17.50
2023-02-17T14:43:28.870Z,17.40
2023-02-17T14:45:56.152Z,17.40
2023-02-17T14:48:23.122Z,17.50
2023-02-17T14:50:50.211Z,17.50
2023-02-17T14:53:32.730Z,17.50
2023-02-17T14:56:24.179Z,17.50
2023-02-17T14:58:53.113Z,17.50
2023-02-17T15:01:22.714Z,17.50
2023-02-17T15:03:49.820Z,17.50
2023-02-17T15:06:28.010Z,17.50
2023-02-17T15:08:56.667Z,17.50
2023-02-17T15:11:34.445Z,17.40
2023-02-17T15:14:02.924Z,17.50
2023-02-17T15:16:30.853Z,17.50
2023-02-17T15:18:58.174Z,17.50
2023-02-17T15:21:31.156Z,17.40
2023-02-17T15:23:59.946Z,17.50
2023-02-17T15:26:27.978Z,17.50
2023-02-17T15:28:57.109Z,17.40
2023-02-17T15:31:33.984Z,17.40
2023-02-17T15:34:02.420Z,17.40
2023-02-17T15:36:32.854Z,17.40
2023-02-17T15:38:59.996Z,17.50
2023-02-17T15:41:30.603Z,17.50
2023-02-17T15:43:58.615Z,17.40
2023-02-17T15:46:31.122Z,17.40
2023-02-17T15:48:58.488Z,17.40
2023-02-17T15:51:25.624Z,17.40
2023-02-17T15:53:52.640Z,17.40
2023-02-17T15:56:23.364Z,17.50
2023-02-17T15:58:51.227Z,17.50
2023-02-17T16:01:29.786Z,17.60
2023-02-17T16:03:58.112Z,17.60
2023-02-17T16:06:26.493Z,17.50
2023-02-17T16:08:54.338Z,17.60
2023-02-17T16:11:22.516Z,17.60
2023-02-17T16:13:50.126Z,17.60
2023-02-17T16:16:23.793Z,17.60
2023-02-17T16:18:51.524Z,17.60
2023-02-17T16:21:18.724Z,17.60
2023-02-17T16:23:46.104Z,17.50
2023-02-17T16:26:32.364Z,17.60
2023-02-17T16:29:02.542Z,17.70
2023-02-17T16:31:32.429Z,17.70
2023-02-17T16:34:00.429Z,17.60
2023-02-17T16:36:31.182Z,17.50
2023-02-17T16:39:00.389Z,17.30
2023-02-17T16:41:27.281Z,17.40
2023-02-17T16:43:54.210Z,17.40
2023-02-17T16:46:29.770Z,17.40
2023-02-17T16:49:01.879Z,17.40
2023-02-17T16:51:29.192Z,17.40
2023-02-17T16:53:56.436Z,17.30
2023-02-17T16:56:32.819Z,17.30
2023-02-17T16:59:00.011Z,17.30
2023-02-17T17:01:27.246Z,17.30
2023-02-17T17:03:55.379Z,17.40
2023-02-17T17:06:25.484Z,17.40
2023-02-17T17:08:53.231Z,17.30
2023-02-17T17:11:23.437Z,17.30
2023-02-17T17:13:51.357Z,17.20
2023-02-17T17:16:25.949Z,17.30
2023-02-17T17:18:53.350Z,17.20
2023-02-17T17:21:20.531Z,17.20
2023-02-17T17:23:47.671Z,17.20
2023-02-17T17:26:36.620Z,17.10
2023-02-17T17:29:03.853Z,17.10
2023-02-17T17:31:30.867Z,17.00
2023-02-17T17:33:58.085Z,17.10
2023-02-17T17:36:35.351Z,17.10
2023-02-17T17:39:04.526Z,17.10
2023-02-17T17:41:31.529Z,17.10
2023-02-17T17:43:59.065Z,17.00
2023-02-17T17:46:31.478Z,17.00
2023-02-17T17:48:59.844Z,17.00
2023-02-17T17:51:29.213Z,16.90
2023-02-17T17:53:57.019Z,17.00
2023-02-17T17:56:27.528Z,16.50
2023-02-17T17:58:55.115Z,16.10
2023-02-17T18:01:24.548Z,16.30
2023-02-17T18:03:51.783Z,16.40
2023-02-17T18:06:37.435Z,16.60
2023-02-17T18:09:07.193Z,16.70
2023-02-17T18:11:37.012Z,16.80
2023-02-17T18:14:11.460Z,16.80
2023-02-17T18:16:41.901Z,16.80
2023-02-17T18:19:08.935Z,16.80
2023-02-17T18:21:36.317Z,16.80
2023-02-17T18:24:04.081Z,16.90
2023-02-17T18:26:31.241Z,17.00
2023-02-17T18:28:58.750Z,17.10
2023-02-17T18:31:28.062Z,17.00
2023-02-17T18:33:56.205Z,17.00
2023-02-17T18:36:26.128Z,17.00
2023-02-17T18:38:53.169Z,16.90
2023-02-17T18:41:29.332Z,16.90
2023-02-17T18:43:58.142Z,16.90
2023-02-17T18:46:26.963Z,16.80
2023-02-17T18:48:55.383Z,16.90
2023-02-17T18:51:23.850Z,17.00
2023-02-17T18:53:51.306Z,16.90
2023-02-17T18:56:21.607Z,16.90
2023-02-17T18:58:50.671Z,16.80
2023-02-17T19:01:24.199Z,16.70
2023-02-17T19:03:52.061Z,16.70
2023-02-17T19:06:22.387Z,16.80
2023-02-17T19:08:49.924Z,16.80
2023-02-17T19:11:18.850Z,16.80
2023-02-17T19:13:46.257Z,16.90
2023-02-17T19:16:28.447Z,16.80
2023-02-17T19:18:56.245Z,17.00
2023-02-17T19:21:23.814Z,16.90
2023-02-17T19:23:51.859Z,16.90
2023-02-17T19:26:22.944Z,16.80
2023-02-17T19:28:50.322Z,16.90
2023-02-17T19:31:19.598Z,16.90
2023-02-17T19:33:47.573Z,16.90
2023-02-17T19:36:17.756Z,16.90
2023-02-17T19:38:45.920Z,16.90
2023-02-17T19:41:13.896Z,16.90
2023-02-17T19:43:41.881Z,16.90
2023-02-17T19:46:12.736Z,16.90
2023-02-17T19:48:40.553Z,16.90
2023-02-17T19:51:09.062Z,16.90
2023-02-17T19:53:36.525Z,16.90
2023-02-17T19:56:13.216Z,17.00
2023-02-17T19:58:42.156Z,17.00
2023-02-17T20:01:13.094Z,17.00
2023-02-17T20:03:40.360Z,17.00
2023-02-17T20:06:13.039Z,16.90
2023-02-17T20:08:40.343Z,16.90
2023-02-17T20:11:08.709Z,17.00
2023-02-17T20:13:45.824Z,17.00
2023-02-17T20:16:16.022Z,16.90
2023-02-17T20:18:46.326Z,16.90
2023-02-17T20:21:26.159Z,17.00
2023-02-17T20:23:53.294Z,16.90
2023-02-17T20:26:29.196Z,16.90
2023-02-17T20:28:57.142Z,16.90
2023-02-17T20:31:25.276Z,16.90
2023-02-17T20:33:52.899Z,17.10
2023-02-17T20:36:22.165Z,17.10
2023-02-17T20:38:50.431Z,17.10
2023-02-17T20:41:20.235Z,17.10
2023-02-17T20:43:47.450Z,16.90
2023-02-17T20:46:23.180Z,16.90
2023-02-17T20:48:50.362Z,16.90
2023-02-17T20:51:17.437Z,17.00
2023-02-17T20:53:44.377Z,17.00
2023-02-17T20:56:17.032Z,17.10
2023-02-17T20:58:44.705Z,17.00
2023-02-17T21:01:11.735Z,17.00
2023-02-17T21:03:39.174Z,17.10
2023-02-17T21:06:17.691Z,17.10
2023-02-17T21:08:45.665Z,17.00
2023-02-17T21:11:12.878Z,17.00
2023-02-17T21:13:40.034Z,16.90
2023-02-17T21:16:07.406Z,16.90
2023-02-17T21:18:35.984Z,16.90
2023-02-17T21:21:03.224Z,17.00
2023-02-17T21:23:30.278Z,16.90
2023-02-17T21:25:57.223Z,16.90
2023-02-17T21:28:24.197Z,16.90
2023-02-17T21:30:51.226Z,16.90
2023-02-17T21:33:18.449Z,16.90
2023-02-17T21:35:45.389Z,16.80
2023-02-17T21:38:12.384Z,16.80
2023-02-17T21:40:39.303Z,16.90
2023-02-17T21:43:25.024Z,16.90
2023-02-17T21:45:52.438Z,16.90
2023-02-17T21:48:19.459Z,16.90
2023-02-17T21:50:46.436Z,16.90
2023-02-17T21:53:13.556Z,16.90
2023-02-17T21:55:40.902Z,16.90
2023-02-17T21:58:07.976Z,16.80
2023-02-17T22:00:35.001Z,17.00
2023-02-17T22:03:02.148Z,16.90
2023-02-17T22:05:32.416Z,16.90
2023-02-17T22:07:59.422Z,16.90
2023-02-17T22:10:26.347Z,16.80
2023-02-17T22:12:53.313Z,16.80
2023-02-17T22:15:20.253Z,16.90
2023-02-17T22:17:48.028Z,16.90
2023-02-17T22:20:15.520Z,16.90
2023-02-17T22:22:42.499Z,16.90
2023-02-17T22:25:09.480Z,16.90
2023-02-17T22:27:36.466Z,16.90
2023-02-17T22:30:05.082Z,16.90
2023-02-17T22:32:32.269Z,16.80
2023-02-17T22:34:59.267Z,16.80
2023-02-17T22:37:26.302Z,16.90
2023-02-17T22:39:56.712Z,16.90
2023-02-17T22:42:24.472Z,17.00
2023-02-17T22:44:51.607Z,17.00
2023-02-17T22:47:18.550Z,16.90
2023-02-17T22:49:45.513Z,16.90
2023-02-17T22:52:12.695Z,16.90
2023-02-17T22:54:40.989Z,16.80
2023-02-17T22:57:08.344Z,17.00
2023-02-17T22:59:35.525Z,16.90
2023-02-17T23:02:02.460Z,17.00
2023-02-17T23:04:30.170Z,17.00
2023-02-17T23:06:57.290Z,16.90
2023-02-17T23:09:33.671Z,17.00
2023-02-17T23:12:00.803Z,17.00
2023-02-17T23:14:28.912Z,17.00
2023-02-17T23:17:00.769Z,17.00
2023-02-17T23:19:28.796Z,17.00
2023-02-17T23:21:59.146Z,17.10
2023-02-17T23:24:26.930Z,16.90
2023-02-17T23:26:56.353Z,17.00
2023-02-17T23:29:23.823Z,17.10
2023-02-17T23:31:51.224Z,17.00
2023-02-17T23:34:18.386Z,17.00
2023-02-17T23:36:46.327Z,17.10
2023-02-17T23:39:15.562Z,17.00
2023-02-17T23:41:43.019Z,17.00
2023-02-17T23:44:11.628Z,16.90
2023-02-17T23:46:40.032Z,16.90
2023-02-17T23:49:07.035Z,17.00
2023-02-17T23:51:34.167Z,17.10
2023-02-17T23:54:01.181Z,17.10
2023-02-17T23:56:35.614Z,17.10
2023-02-17T23:59:03.335Z,17.10
